North River — WYR2549 — position and weather

sailwx.info

Track history (hours):
 
Tides and Currents Weather Stations Pressure Air Temp Water Temp Dewpoint Dewpoint Depression Visibility Wind Speed Wind Dir Waves Ship Positions

North River

Owner: CITY OF NEW YORK, Brooklyn, NY. More information available from US FCC via Universal Licensing System and Coast Guard Vessel Documentation Center.

Last reported at 2016-Jul-26 15:33 UTC. Time now 2016-Jul-26 16:03 UTC.
Position N 40°39' W 074°02'.

Length 78 m.

Type: Tanker. MMSI: 367074110.

Date/timePositionNaut miles runAvg speedWind from/ knotsBaromVisibWave heightAir tempDewpointWater temp
2016-Jul-26 15:33N 40°39' W 074°02'0 0.0
2016-Jul-26 14:33N 40°39' W 074°02'0 0.0
2016-Jul-26 13:33N 40°39' W 074°02'6 6.2
2016-Jul-26 12:34N 40°44' W 073°58'2 0.1
2016-Jul-25 22:29N 40°46' W 073°57'8 8.5
2016-Jul-25 21:33N 40°39' W 074°03'5 4.6
2016-Jul-25 20:33N 40°43' W 074°07'0 0.0
2016-Jul-25 19:33N 40°43' W 074°07'0 0.0
2016-Jul-25 18:33N 40°43' W 074°07'2 2.3
2016-Jul-25 17:33N 40°40' W 074°08'5 5.3
2016-Jul-25 16:34N 40°41' W 074°01'9 8.1
2016-Jul-25 15:29N 40°48' W 073°54'6 0.3
2016-Jul-24 16:26N 40°43' W 073°58'3 1.1
2016-Jul-24 13:11N 40°46' W 074°00'2 2.9
2016-Jul-24 12:27N 40°45' W 073°58'4 0.3
2016-Jul-23 21:04N 40°47' W 073°53'3 5.9
2016-Jul-23 20:32N 40°46' W 073°57'1010.0
2016-Jul-23 19:34N 40°39' W 074°06'1 0.5
2016-Jul-23 17:25N 40°38' W 074°08'6 6.7
2016-Jul-23 16:33N 40°42' W 074°02'6 1.9
2016-Jul-23 13:32N 40°47' W 073°59'2 2.4
2016-Jul-23 12:33N 40°46' W 073°57'2 0.1
2016-Jul-22 16:33N 40°43' W 073°58'6 5.7
2016-Jul-22 15:33N 40°39' W 074°02'0 0.0
2016-Jul-22 14:33N 40°39' W 074°02'0 0.0
2016-Jul-22 13:33N 40°39' W 074°02'9 9.0
2016-Jul-22 12:33N 40°47' W 073°56'2 0.2
2016-Jul-22 00:07N 40°47' W 073°53'5 9.5
2016-Jul-21 23:33N 40°43' W 073°58'6 1.4
2016-Jul-21 19:33N 40°39' W 074°03'0 0.5
2016-Jul-21 18:33N 40°39' W 074°02'0 0.0
2016-Jul-21 17:33N 40°39' W 074°02'0 0.0
2016-Jul-21 16:33N 40°39' W 074°02'12 0.3
2016-Jul-19 17:19N 40°48' W 073°51'1 0.0
2016-Jul-18 12:32N 40°48' W 073°53'1 0.0
2016-Jul-16 19:15N 40°47' W 073°53'3 1.1
2016-Jul-16 16:31N 40°46' W 073°57'2 2.5
2016-Jul-16 15:34N 40°47' W 073°60'  
Track history (hours):
 
Tides and Currents Weather Stations Pressure Air Temp Water Temp Dewpoint Dewpoint Depression Visibility Wind Speed Wind Dir Waves Ship Positions

North River

Owner: CITY OF NEW YORK, Brooklyn, NY. More information available from US FCC via Universal Licensing System and Coast Guard Vessel Documentation Center.

Last reported at 2016-Jul-26 15:33 UTC. Time now 2016-Jul-26 16:03 UTC.
Position N 40°39' W 074°02'.

Length 78 m.

Type: Tanker. MMSI: 367074110.

Date/timePositionNaut miles runAvg speedWind from/ knotsBaromVisibWave heightAir tempDewpointWater temp
2016-Jul-26 15:33N 40°39' W 074°02'0 0.0
2016-Jul-26 14:33N 40°39' W 074°02'0 0.0
2016-Jul-26 13:33N 40°39' W 074°02'6 6.2
2016-Jul-26 12:34N 40°44' W 073°58'2 0.1
2016-Jul-25 22:29N 40°46' W 073°57'8 8.5
2016-Jul-25 21:33N 40°39' W 074°03'5 4.6
2016-Jul-25 20:33N 40°43' W 074°07'0 0.0
2016-Jul-25 19:33N 40°43' W 074°07'0 0.0
2016-Jul-25 18:33N 40°43' W 074°07'2 2.3
2016-Jul-25 17:33N 40°40' W 074°08'5 5.3
2016-Jul-25 16:34N 40°41' W 074°01'9 8.1
2016-Jul-25 15:29N 40°48' W 073°54'6 0.3
2016-Jul-24 16:26N 40°43' W 073°58'3 1.1
2016-Jul-24 13:11N 40°46' W 074°00'2 2.9
2016-Jul-24 12:27N 40°45' W 073°58'4 0.3
2016-Jul-23 21:04N 40°47' W 073°53'3 5.9
2016-Jul-23 20:32N 40°46' W 073°57'1010.0
2016-Jul-23 19:34N 40°39' W 074°06'1 0.5
2016-Jul-23 17:25N 40°38' W 074°08'6 6.7
2016-Jul-23 16:33N 40°42' W 074°02'6 1.9
2016-Jul-23 13:32N 40°47' W 073°59'2 2.4
2016-Jul-23 12:33N 40°46' W 073°57'2 0.1
2016-Jul-22 16:33N 40°43' W 073°58'6 5.7
2016-Jul-22 15:33N 40°39' W 074°02'0 0.0
2016-Jul-22 14:33N 40°39' W 074°02'0 0.0
2016-Jul-22 13:33N 40°39' W 074°02'9 9.0
2016-Jul-22 12:33N 40°47' W 073°56'2 0.2
2016-Jul-22 00:07N 40°47' W 073°53'5 9.5
2016-Jul-21 23:33N 40°43' W 073°58'6 1.4
2016-Jul-21 19:33N 40°39' W 074°03'0 0.5
2016-Jul-21 18:33N 40°39' W 074°02'0 0.0
2016-Jul-21 17:33N 40°39' W 074°02'0 0.0
2016-Jul-21 16:33N 40°39' W 074°02'12 0.3
2016-Jul-19 17:19N 40°48' W 073°51'1 0.0
2016-Jul-18 12:32N 40°48' W 073°53'1 0.0
2016-Jul-16 19:15N 40°47' W 073°53'3 1.1
2016-Jul-16 16:31N 40°46' W 073°57'2 2.5
2016-Jul-16 15:34N 40°47' W 073°60'  

Dump ship's entire track history